sensor_id;sensor_type;location;lat;lon;timestamp;temperature;humidity
26721;HTU21D;15950;51.112;6.966;2023-01-29T00:01:07;-0.69;75.59
26721;HTU21D;15950;51.112;6.966;2023-01-29T00:04:06;-0.57;75.21
26721;HTU21D;15950;51.112;6.966;2023-01-29T00:07:06;-0.81;75.41
26721;HTU21D;15950;51.112;6.966;2023-01-29T00:10:06;-0.80;75.75
26721;HTU21D;15950;51.112;6.966;2023-01-29T00:13:06;-0.95;75.86
26721;HTU21D;15950;51.112;6.966;2023-01-29T00:16:06;-0.85;76.01
26721;HTU21D;15950;51.112;6.966;2023-01-29T00:19:06;-0.94;76.16
26721;HTU21D;15950;51.112;6.966;2023-01-29T00:22:06;-0.75;75.75
26721;HTU21D;15950;51.112;6.966;2023-01-29T00:25:07;-0.73;75.57
26721;HTU21D;15950;51.112;6.966;2023-01-29T00:28:06;-0.63;75.05
26721;HTU21D;15950;51.112;6.966;2023-01-29T00:31:12;-0.68;74.92
26721;HTU21D;15950;51.112;6.966;2023-01-29T00:34:06;-0.54;74.63
26721;HTU21D;15950;51.112;6.966;2023-01-29T00:37:06;-0.57;74.44
26721;HTU21D;15950;51.112;6.966;2023-01-29T00:40:07;-0.58;74.52
26721;HTU21D;15950;51.112;6.966;2023-01-29T00:43:06;-0.55;74.28
26721;HTU21D;15950;51.112;6.966;2023-01-29T00:46:06;-0.53;74.12
26721;HTU21D;15950;51.112;6.966;2023-01-29T00:49:07;-0.53;73.94
26721;HTU21D;15950;51.112;6.966;2023-01-29T00:52:06;-0.62;74.05
26721;HTU21D;15950;51.112;6.966;2023-01-29T00:55:07;-1.00;74.53
26721;HTU21D;15950;51.112;6.966;2023-01-29T00:58:06;-0.66;74.53
26721;HTU21D;15950;51.112;6.966;2023-01-29T01:01:06;-0.63;74.39
26721;HTU21D;15950;51.112;6.966;2023-01-29T01:04:08;-0.70;74.30
26721;HTU21D;15950;51.112;6.966;2023-01-29T01:07:06;-0.60;74.07
26721;HTU21D;15950;51.112;6.966;2023-01-29T01:10:07;-0.68;73.98
26721;HTU21D;15950;51.112;6.966;2023-01-29T01:13:06;-0.83;74.15
26721;HTU21D;15950;51.112;6.966;2023-01-29T01:16:15;-0.76;74.47
26721;HTU21D;15950;51.112;6.966;2023-01-29T01:19:06;-0.76;74.53
26721;HTU21D;15950;51.112;6.966;2023-01-29T01:22:06;-0.80;74.76
26721;HTU21D;15950;51.112;6.966;2023-01-29T01:25:06;-1.23;75.35
26721;HTU21D;15950;51.112;6.966;2023-01-29T01:28:07;-1.09;75.71
26721;HTU21D;15950;51.112;6.966;2023-01-29T01:31:11;-1.13;76.44
26721;HTU21D;15950;51.112;6.966;2023-01-29T01:34:06;-0.94;75.71
26721;HTU21D;15950;51.112;6.966;2023-01-29T01:37:06;-0.87;75.27
26721;HTU21D;15950;51.112;6.966;2023-01-29T01:40:12;-0.85;75.03
26721;HTU21D;15950;51.112;6.966;2023-01-29T01:43:08;-0.82;74.83
26721;HTU21D;15950;51.112;6.966;2023-01-29T01:46:06;-0.79;74.51
26721;HTU21D;15950;51.112;6.966;2023-01-29T01:49:13;-1.16;74.78
26721;HTU21D;15950;51.112;6.966;2023-01-29T01:52:07;-0.95;75.21
26721;HTU21D;15950;51.112;6.966;2023-01-29T01:55:08;-1.69;76.46
26721;HTU21D;15950;51.112;6.966;2023-01-29T01:58:10;-1.77;78.51
26721;HTU21D;15950;51.112;6.966;2023-01-29T02:01:07;-1.69;79.68
26721;HTU21D;15950;51.112;6.966;2023-01-29T02:04:15;-1.42;79.11
26721;HTU21D;15950;51.112;6.966;2023-01-29T02:07:08;-1.17;78.18
26721;HTU21D;15950;51.112;6.966;2023-01-29T02:10:12;-1.12;77.78
26721;HTU21D;15950;51.112;6.966;2023-01-29T02:13:06;-1.11;77.83
26721;HTU21D;15950;51.112;6.966;2023-01-29T02:16:06;-1.04;77.47
26721;HTU21D;15950;51.112;6.966;2023-01-29T02:19:15;-0.97;77.13
26721;HTU21D;15950;51.112;6.966;2023-01-29T02:22:26;-1.22;76.95
26721;HTU21D;15950;51.112;6.966;2023-01-29T02:31:15;-1.00;75.77
26721;HTU21D;15950;51.112;6.966;2023-01-29T02:37:08;-1.18;76.28
26721;HTU21D;15950;51.112;6.966;2023-01-29T02:40:13;-1.03;75.95
26721;HTU21D;15950;51.112;6.966;2023-01-29T02:43:14;-0.94;75.44
26721;HTU21D;15950;51.112;6.966;2023-01-29T02:52:15;-1.10;75.05
26721;HTU21D;15950;51.112;6.966;2023-01-29T02:55:11;-1.28;75.08
26721;HTU21D;15950;51.112;6.966;2023-01-29T03:04:10;-1.26;75.80
26721;HTU21D;15950;51.112;6.966;2023-01-29T03:07:09;-1.23;75.52
26721;HTU21D;15950;51.112;6.966;2023-01-29T03:13:17;-1.46;76.32
26721;HTU21D;15950;51.112;6.966;2023-01-29T03:19:11;-1.25;76.46
26721;HTU21D;15950;51.112;6.966;2023-01-29T03:22:06;-1.26;76.16
26721;HTU21D;15950;51.112;6.966;2023-01-29T03:25:07;-1.86;76.89
26721;HTU21D;15950;51.112;6.966;2023-01-29T03:28:07;-2.00;78.59
26721;HTU21D;15950;51.112;6.966;2023-01-29T03:31:09;-1.78;78.70
26721;HTU21D;15950;51.112;6.966;2023-01-29T03:34:12;-1.65;78.67
26721;HTU21D;15950;51.112;6.966;2023-01-29T03:40:07;-1.29;77.37
26721;HTU21D;15950;51.112;6.966;2023-01-29T03:46:16;-1.28;76.85
26721;HTU21D;15950;51.112;6.966;2023-01-29T03:49:14;-1.20;76.55
26721;HTU21D;15950;51.112;6.966;2023-01-29T04:01:14;-1.93;77.99
26721;HTU21D;15950;51.112;6.966;2023-01-29T04:04:13;-1.76;78.18
26721;HTU21D;15950;51.112;6.966;2023-01-29T04:07:12;-1.69;78.00
26721;HTU21D;15950;51.112;6.966;2023-01-29T04:10:12;-1.56;77.68
26721;HTU21D;15950;51.112;6.966;2023-01-29T04:13:09;-1.46;77.34
26721;HTU21D;15950;51.112;6.966;2023-01-29T04:16:10;-1.47;77.25
26721;HTU21D;15950;51.112;6.966;2023-01-29T04:19:06;-1.34;76.95
26721;HTU21D;15950;51.112;6.966;2023-01-29T04:22:11;-1.57;77.41
26721;HTU21D;15950;51.112;6.966;2023-01-29T04:31:08;-1.43;77.60
26721;HTU21D;15950;51.112;6.966;2023-01-29T04:43:20;-1.33;77.47
26721;HTU21D;15950;51.112;6.966;2023-01-29T04:46:11;-1.32;77.22
26721;HTU21D;15950;51.112;6.966;2023-01-29T04:52:14;-1.43;78.05
26721;HTU21D;15950;51.112;6.966;2023-01-29T05:01:09;-1.45;77.21
26721;HTU21D;15950;51.112;6.966;2023-01-29T05:04:12;-2.01;79.53
26721;HTU21D;15950;51.112;6.966;2023-01-29T05:07:09;-2.17;81.46
26721;HTU21D;15950;51.112;6.966;2023-01-29T05:10:07;-1.91;81.79
26721;HTU21D;15950;51.112;6.966;2023-01-29T05:13:09;-1.61;80.91
26721;HTU21D;15950;51.112;6.966;2023-01-29T05:16:14;-1.59;80.62
26721;HTU21D;15950;51.112;6.966;2023-01-29T05:19:08;-1.70;80.85
26721;HTU21D;15950;51.112;6.966;2023-01-29T05:22:08;-1.91;81.68
26721;HTU21D;15950;51.112;6.966;2023-01-29T05:28:07;-2.17;83.23
26721;HTU21D;15950;51.112;6.966;2023-01-29T05:31:06;-2.25;84.32
26721;HTU21D;15950;51.112;6.966;2023-01-29T05:34:06;-2.32;84.79
26721;HTU21D;15950;51.112;6.966;2023-01-29T05:37:06;-2.07;84.91
26721;HTU21D;15950;51.112;6.966;2023-01-29T05:40:07;-1.78;83.87
26721;HTU21D;15950;51.112;6.966;2023-01-29T05:43:14;-1.49;82.71
26721;HTU21D;15950;51.112;6.966;2023-01-29T05:46:06;-1.62;82.29
26721;HTU21D;15950;51.112;6.966;2023-01-29T05:49:06;-1.61;82.01
26721;HTU21D;15950;51.112;6.966;2023-01-29T05:52:06;-1.63;82.13
26721;HTU21D;15950;51.112;6.966;2023-01-29T05:55:08;-1.67;82.36
26721;HTU21D;15950;51.112;6.966;2023-01-29T05:58:06;-1.81;82.75
26721;HTU21D;15950;51.112;6.966;2023-01-29T06:01:16;-1.70;82.71
26721;HTU21D;15950;51.112;6.966;2023-01-29T06:07:06;-1.72;82.59
26721;HTU21D;15950;51.112;6.966;2023-01-29T06:10:06;-1.77;82.36
26721;HTU21D;15950;51.112;6.966;2023-01-29T06:13:06;-1.59;81.80
26721;HTU21D;15950;51.112;6.966;2023-01-29T06:16:07;-1.66;81.97
26721;HTU21D;15950;51.112;6.966;2023-01-29T06:19:06;-1.40;81.10
26721;HTU21D;15950;51.112;6.966;2023-01-29T06:22:06;-1.39;80.64
26721;HTU21D;15950;51.112;6.966;2023-01-29T06:25:06;-1.38;80.47
26721;HTU21D;15950;51.112;6.966;2023-01-29T06:28:06;-1.35;80.33
26721;HTU21D;15950;51.112;6.966;2023-01-29T06:31:07;-1.27;80.24
26721;HTU21D;15950;51.112;6.966;2023-01-29T06:34:07;-1.29;80.17
26721;HTU21D;15950;51.112;6.966;2023-01-29T06:37:06;-1.17;79.95
26721;HTU21D;15950;51.112;6.966;2023-01-29T06:40:07;-1.09;79.41
26721;HTU21D;15950;51.112;6.966;2023-01-29T06:43:06;-1.01;79.00
26721;HTU21D;15950;51.112;6.966;2023-01-29T06:46:07;-1.24;78.98
26721;HTU21D;15950;51.112;6.966;2023-01-29T06:49:06;-1.02;79.03
26721;HTU21D;15950;51.112;6.966;2023-01-29T06:52:06;-1.09;79.25
26721;HTU21D;15950;51.112;6.966;2023-01-29T06:55:06;-1.34;80.17
26721;HTU21D;15950;51.112;6.966;2023-01-29T06:58:07;-1.53;81.36
26721;HTU21D;15950;51.112;6.966;2023-01-29T07:01:08;-1.81;82.88
26721;HTU21D;15950;51.112;6.966;2023-01-29T07:04:06;-1.87;84.06
26721;HTU21D;15950;51.112;6.966;2023-01-29T07:07:06;-1.95;85.03
26721;HTU21D;15950;51.112;6.966;2023-01-29T07:10:06;-2.18;86.14
26721;HTU21D;15950;51.112;6.966;2023-01-29T07:13:06;-2.17;87.09
26721;HTU21D;15950;51.112;6.966;2023-01-29T07:16:06;-2.15;87.45
26721;HTU21D;15950;51.112;6.966;2023-01-29T07:19:06;-2.04;87.49
26721;HTU21D;15950;51.112;6.966;2023-01-29T07:22:06;-2.12;87.63
26721;HTU21D;15950;51.112;6.966;2023-01-29T07:25:06;-1.92;87.32
26721;HTU21D;15950;51.112;6.966;2023-01-29T07:28:06;-2.07;87.44
26721;HTU21D;15950;51.112;6.966;2023-01-29T07:31:06;-2.10;87.84
26721;HTU21D;15950;51.112;6.966;2023-01-29T07:34:06;-1.99;87.70
26721;HTU21D;15950;51.112;6.966;2023-01-29T07:37:06;-1.89;87.42
26721;HTU21D;15950;51.112;6.966;2023-01-29T07:40:06;-1.81;87.35
26721;HTU21D;15950;51.112;6.966;2023-01-29T07:43:07;-1.72;86.76
26721;HTU21D;15950;51.112;6.966;2023-01-29T07:46:06;-1.74;86.59
26721;HTU21D;15950;51.112;6.966;2023-01-29T07:49:06;-1.81;86.91
26721;HTU21D;15950;51.112;6.966;2023-01-29T07:52:06;-1.68;86.80
26721;HTU21D;15950;51.112;6.966;2023-01-29T07:55:06;-1.73;87.03
26721;HTU21D;15950;51.112;6.966;2023-01-29T07:58:06;-1.78;87.27
26721;HTU21D;15950;51.112;6.966;2023-01-29T08:01:06;-1.86;87.61
26721;HTU21D;15950;51.112;6.966;2023-01-29T08:04:06;-1.61;87.41
26721;HTU21D;15950;51.112;6.966;2023-01-29T08:07:06;-1.58;86.96
26721;HTU21D;15950;51.112;6.966;2023-01-29T08:10:09;-1.68;87.12
26721;HTU21D;15950;51.112;6.966;2023-01-29T08:13:06;-1.60;87.27
26721;HTU21D;15950;51.112;6.966;2023-01-29T08:16:06;-1.56;87.08
26721;HTU21D;15950;51.112;6.966;2023-01-29T08:19:06;-1.59;87.17
26721;HTU21D;15950;51.112;6.966;2023-01-29T08:22:06;-1.59;87.10
26721;HTU21D;15950;51.112;6.966;2023-01-29T08:25:06;-1.45;86.93
26721;HTU21D;15950;51.112;6.966;2023-01-29T08:28:06;-1.37;86.70
26721;HTU21D;15950;51.112;6.966;2023-01-29T08:31:17;-1.35;86.62
26721;HTU21D;15950;51.112;6.966;2023-01-29T08:34:06;-1.41;86.57
26721;HTU21D;15950;51.112;6.966;2023-01-29T08:37:06;-1.44;86.59
26721;HTU21D;15950;51.112;6.966;2023-01-29T08:40:06;-1.41;86.48
26721;HTU21D;15950;51.112;6.966;2023-01-29T08:43:07;-1.40;86.47
26721;HTU21D;15950;51.112;6.966;2023-01-29T08:46:06;-1.35;86.48
26721;HTU21D;15950;51.112;6.966;2023-01-29T08:49:06;-1.39;86.71
26721;HTU21D;15950;51.112;6.966;2023-01-29T08:52:06;-1.38;86.86
26721;HTU21D;15950;51.112;6.966;2023-01-29T08:55:06;-1.41;86.99
26721;HTU21D;15950;51.112;6.966;2023-01-29T08:58:08;-1.25;86.64
26721;HTU21D;15950;51.112;6.966;2023-01-29T09:01:10;-1.25;86.76
26721;HTU21D;15950;51.112;6.966;2023-01-29T09:04:06;-1.28;86.93
26721;HTU21D;15950;51.112;6.966;2023-01-29T09:07:06;-1.24;86.97
26721;HTU21D;15950;51.112;6.966;2023-01-29T09:10:06;-1.19;87.02
26721;HTU21D;15950;51.112;6.966;2023-01-29T09:13:06;-1.24;87.37
26721;HTU21D;15950;51.112;6.966;2023-01-29T09:16:06;-1.09;87.21
26721;HTU21D;15950;51.112;6.966;2023-01-29T09:19:06;-1.11;87.08
26721;HTU21D;15950;51.112;6.966;2023-01-29T09:22:06;-1.12;86.83
26721;HTU21D;15950;51.112;6.966;2023-01-29T09:25:06;-1.07;87.00
26721;HTU21D;15950;51.112;6.966;2023-01-29T09:28:06;-1.07;86.70
26721;HTU21D;15950;51.112;6.966;2023-01-29T09:31:06;-0.98;86.54
26721;HTU21D;15950;51.112;6.966;2023-01-29T09:34:06;-0.90;86.29
26721;HTU21D;15950;51.112;6.966;2023-01-29T09:37:06;-0.77;86.15
26721;HTU21D;15950;51.112;6.966;2023-01-29T09:40:07;-0.81;86.00
26721;HTU21D;15950;51.112;6.966;2023-01-29T09:43:15;-0.82;85.87
26721;HTU21D;15950;51.112;6.966;2023-01-29T09:46:13;-0.56;85.47
26721;HTU21D;15950;51.112;6.966;2023-01-29T09:52:21;-0.54;85.03
26721;HTU21D;15950;51.112;6.966;2023-01-29T09:55:09;-0.41;85.21
26721;HTU21D;15950;51.112;6.966;2023-01-29T09:58:13;-0.43;85.09
26721;HTU21D;15950;51.112;6.966;2023-01-29T10:04:54;-0.36;85.22
26721;HTU21D;15950;51.112;6.966;2023-01-29T10:10:12;-0.26;84.93
26721;HTU21D;15950;51.112;6.966;2023-01-29T10:19:17;-0.12;84.45
26721;HTU21D;15950;51.112;6.966;2023-01-29T10:25:14;-0.17;84.26
26721;HTU21D;15950;51.112;6.966;2023-01-29T10:37:13;0.06;83.61
26721;HTU21D;15950;51.112;6.966;2023-01-29T10:43:11;0.17;83.10
26721;HTU21D;15950;51.112;6.966;2023-01-29T10:55:17;0.28;82.56
26721;HTU21D;15950;51.112;6.966;2023-01-29T11:01:08;0.42;82.16
26721;HTU21D;15950;51.112;6.966;2023-01-29T11:04:08;0.52;81.88
26721;HTU21D;15950;51.112;6.966;2023-01-29T11:07:06;0.65;81.48
26721;HTU21D;15950;51.112;6.966;2023-01-29T11:10:13;0.53;81.06
26721;HTU21D;15950;51.112;6.966;2023-01-29T11:13:10;0.67;81.04
26721;HTU21D;15950;51.112;6.966;2023-01-29T11:16:07;0.78;80.83
26721;HTU21D;15950;51.112;6.966;2023-01-29T11:19:06;0.86;80.47
26721;HTU21D;15950;51.112;6.966;2023-01-29T11:22:12;0.82;80.36
26721;HTU21D;15950;51.112;6.966;2023-01-29T11:28:07;0.88;79.75
26721;HTU21D;15950;51.112;6.966;2023-01-29T11:31:14;0.87;79.87
26721;HTU21D;15950;51.112;6.966;2023-01-29T11:46:11;1.07;78.72
26721;HTU21D;15950;51.112;6.966;2023-01-29T11:52:08;1.04;78.70
26721;HTU21D;15950;51.112;6.966;2023-01-29T11:55:12;1.05;78.67
26721;HTU21D;15950;51.112;6.966;2023-01-29T12:01:06;0.82;79.41
26721;HTU21D;15950;51.112;6.966;2023-01-29T12:07:13;1.00;79.34
26721;HTU21D;15950;51.112;6.966;2023-01-29T12:13:14;0.99;79.56
26721;HTU21D;15950;51.112;6.966;2023-01-29T12:19:21;0.94;79.93
26721;HTU21D;15950;51.112;6.966;2023-01-29T12:31:22;1.11;79.72
26721;HTU21D;15950;51.112;6.966;2023-01-29T12:40:14;1.23;79.52
26721;HTU21D;15950;51.112;6.966;2023-01-29T12:43:18;1.25;79.28
26721;HTU21D;15950;51.112;6.966;2023-01-29T12:46:09;1.38;79.01
26721;HTU21D;15950;51.112;6.966;2023-01-29T12:49:14;1.27;79.24
26721;HTU21D;15950;51.112;6.966;2023-01-29T12:58:13;1.51;78.45
26721;HTU21D;15950;51.112;6.966;2023-01-29T13:01:15;1.39;78.59
26721;HTU21D;15950;51.112;6.966;2023-01-29T13:04:56;1.50;78.90
26721;HTU21D;15950;51.112;6.966;2023-01-29T13:07:13;1.62;78.81
26721;HTU21D;15950;51.112;6.966;2023-01-29T13:10:12;1.47;78.68
26721;HTU21D;15950;51.112;6.966;2023-01-29T13:16:10;1.53;78.56
26721;HTU21D;15950;51.112;6.966;2023-01-29T13:19:17;1.63;78.56
26721;HTU21D;15950;51.112;6.966;2023-01-29T13:22:21;1.59;78.41
26721;HTU21D;15950;51.112;6.966;2023-01-29T13:25:14;1.68;78.43
26721;HTU21D;15950;51.112;6.966;2023-01-29T13:31:17;1.75;77.86
26721;HTU21D;15950;51.112;6.966;2023-01-29T13:37:11;1.78;77.95
26721;HTU21D;15950;51.112;6.966;2023-01-29T13:40:06;1.72;77.84
26721;HTU21D;15950;51.112;6.966;2023-01-29T13:43:11;1.73;77.57
26721;HTU21D;15950;51.112;6.966;2023-01-29T13:49:20;1.88;77.22
26721;HTU21D;15950;51.112;6.966;2023-01-29T13:55:07;1.90;77.39
26721;HTU21D;15950;51.112;6.966;2023-01-29T14:01:06;2.05;76.81
26721;HTU21D;15950;51.112;6.966;2023-01-29T14:10:15;1.98;76.49
26721;HTU21D;15950;51.112;6.966;2023-01-29T14:19:06;2.18;76.01
26721;HTU21D;15950;51.112;6.966;2023-01-29T14:22:06;2.24;75.88
26721;HTU21D;15950;51.112;6.966;2023-01-29T14:25:14;2.20;75.81
26721;HTU21D;15950;51.112;6.966;2023-01-29T14:28:19;2.21;75.82
26721;HTU21D;15950;51.112;6.966;2023-01-29T14:31:05;2.19;75.70
26721;HTU21D;15950;51.112;6.966;2023-01-29T14:43:07;2.32;75.38
26721;HTU21D;15950;51.112;6.966;2023-01-29T14:46:40;2.28;75.50
26721;HTU21D;15950;51.112;6.966;2023-01-29T14:49:07;2.28;75.54
26721;HTU21D;15950;51.112;6.966;2023-01-29T14:52:09;2.34;75.52
26721;HTU21D;15950;51.112;6.966;2023-01-29T14:55:14;2.48;75.29
26721;HTU21D;15950;51.112;6.966;2023-01-29T15:10:15;2.51;75.02
26721;HTU21D;15950;51.112;6.966;2023-01-29T15:13:16;2.27;75.26
26721;HTU21D;15950;51.112;6.966;2023-01-29T15:16:14;2.46;75.34
26721;HTU21D;15950;51.112;6.966;2023-01-29T15:19:15;2.45;75.52
26721;HTU21D;15950;51.112;6.966;2023-01-29T15:22:11;2.35;75.34
26721;HTU21D;15950;51.112;6.966;2023-01-29T15:25:12;2.33;75.66
26721;HTU21D;15950;51.112;6.966;2023-01-29T15:28:09;2.55;75.54
26721;HTU21D;15950;51.112;6.966;2023-01-29T15:31:11;2.68;74.80
26721;HTU21D;15950;51.112;6.966;2023-01-29T15:34:06;2.68;74.83
26721;HTU21D;15950;51.112;6.966;2023-01-29T15:37:05;2.91;74.04
26721;HTU21D;15950;51.112;6.966;2023-01-29T15:40:12;3.08;73.57
26721;HTU21D;15950;51.112;6.966;2023-01-29T15:46:11;3.22;72.05
26721;HTU21D;15950;51.112;6.966;2023-01-29T15:49:14;2.98;72.94
26721;HTU21D;15950;51.112;6.966;2023-01-29T15:55:06;2.80;74.35
26721;HTU21D;15950;51.112;6.966;2023-01-29T15:58:06;2.55;75.21
26721;HTU21D;15950;51.112;6.966;2023-01-29T16:01:05;2.51;75.56
26721;HTU21D;15950;51.112;6.966;2023-01-29T16:04:11;2.56;75.64
26721;HTU21D;15950;51.112;6.966;2023-01-29T16:07:05;2.61;75.66
26721;HTU21D;15950;51.112;6.966;2023-01-29T16:10:06;2.85;75.12
26721;HTU21D;15950;51.112;6.966;2023-01-29T16:13:15;2.54;75.71
26721;HTU21D;15950;51.112;6.966;2023-01-29T16:19:31;2.54;76.48
26721;HTU21D;15950;51.112;6.966;2023-01-29T16:22:07;2.53;76.48
26721;HTU21D;15950;51.112;6.966;2023-01-29T16:25:13;2.50;76.69
26721;HTU21D;15950;51.112;6.966;2023-01-29T16:28:06;2.59;76.70
26721;HTU21D;15950;51.112;6.966;2023-01-29T16:31:05;2.52;77.02
26721;HTU21D;15950;51.112;6.966;2023-01-29T16:49:41;2.45;77.94
26721;HTU21D;15950;51.112;6.966;2023-01-29T16:58:14;2.39;78.98
26721;HTU21D;15950;51.112;6.966;2023-01-29T17:01:10;2.45;79.13
26721;HTU21D;15950;51.112;6.966;2023-01-29T17:04:10;2.45;79.05
26721;HTU21D;15950;51.112;6.966;2023-01-29T17:07:11;2.51;78.82
26721;HTU21D;15950;51.112;6.966;2023-01-29T17:10:06;2.51;78.75
26721;HTU21D;15950;51.112;6.966;2023-01-29T17:13:08;2.66;78.32
26721;HTU21D;15950;51.112;6.966;2023-01-29T17:16:14;2.58;78.07
26721;HTU21D;15950;51.112;6.966;2023-01-29T17:19:15;2.75;77.77
26721;HTU21D;15950;51.112;6.966;2023-01-29T17:22:06;2.79;77.63
26721;HTU21D;15950;51.112;6.966;2023-01-29T17:25:06;2.76;77.21
26721;HTU21D;15950;51.112;6.966;2023-01-29T17:28:06;2.91;76.92
26721;HTU21D;15950;51.112;6.966;2023-01-29T17:31:06;3.00;76.32
26721;HTU21D;15950;51.112;6.966;2023-01-29T17:34:12;3.08;76.15
26721;HTU21D;15950;51.112;6.966;2023-01-29T17:37:10;3.07;76.11
26721;HTU21D;15950;51.112;6.966;2023-01-29T17:43:05;3.02;75.82
26721;HTU21D;15950;51.112;6.966;2023-01-29T17:46:10;2.95;75.86
26721;HTU21D;15950;51.112;6.966;2023-01-29T17:49:16;2.90;76.28
26721;HTU21D;15950;51.112;6.966;2023-01-29T17:52:06;2.89;76.32
26721;HTU21D;15950;51.112;6.966;2023-01-29T17:55:06;2.91;76.42
26721;HTU21D;15950;51.112;6.966;2023-01-29T17:58:07;2.86;76.50
26721;HTU21D;15950;51.112;6.966;2023-01-29T18:01:05;2.93;76.37
26721;HTU21D;15950;51.112;6.966;2023-01-29T18:04:05;2.90;76.28
26721;HTU21D;15950;51.112;6.966;2023-01-29T18:07:05;2.81;76.53
26721;HTU21D;15950;51.112;6.966;2023-01-29T18:10:16;2.90;76.48
26721;HTU21D;15950;51.112;6.966;2023-01-29T18:13:05;2.87;76.45
26721;HTU21D;15950;51.112;6.966;2023-01-29T18:16:06;2.75;76.58
26721;HTU21D;15950;51.112;6.966;2023-01-29T18:22:05;2.75;76.60
26721;HTU21D;15950;51.112;6.966;2023-01-29T18:25:06;2.72;76.76
26721;HTU21D;15950;51.112;6.966;2023-01-29T18:28:06;2.78;76.79
26721;HTU21D;15950;51.112;6.966;2023-01-29T18:31:05;2.78;76.89
26721;HTU21D;15950;51.112;6.966;2023-01-29T18:34:05;2.77;77.14
26721;HTU21D;15950;51.112;6.966;2023-01-29T18:37:05;2.65;77.31
26721;HTU21D;15950;51.112;6.966;2023-01-29T18:40:07;2.69;77.31
26721;HTU21D;15950;51.112;6.966;2023-01-29T18:43:05;2.78;77.27
26721;HTU21D;15950;51.112;6.966;2023-01-29T18:46:06;2.68;77.24
26721;HTU21D;15950;51.112;6.966;2023-01-29T18:49:05;2.69;77.33
26721;HTU21D;15950;51.112;6.966;2023-01-29T18:52:06;2.65;77.31
26721;HTU21D;15950;51.112;6.966;2023-01-29T18:55:06;2.52;77.54
26721;HTU21D;15950;51.112;6.966;2023-01-29T18:58:05;2.60;77.72
26721;HTU21D;15950;51.112;6.966;2023-01-29T19:01:06;2.60;77.56
26721;HTU21D;15950;51.112;6.966;2023-01-29T19:04:05;2.65;77.45
26721;HTU21D;15950;51.112;6.966;2023-01-29T19:07:11;2.68;77.33
26721;HTU21D;15950;51.112;6.966;2023-01-29T19:10:06;2.72;77.60
26721;HTU21D;15950;51.112;6.966;2023-01-29T19:13:05;2.64;77.44
26721;HTU21D;15950;51.112;6.966;2023-01-29T19:16:07;2.58;77.52
26721;HTU21D;15950;51.112;6.966;2023-01-29T19:19:05;2.68;77.57
26721;HTU21D;15950;51.112;6.966;2023-01-29T19:22:05;2.68;77.43
26721;HTU21D;15950;51.112;6.966;2023-01-29T19:25:06;2.55;77.55
26721;HTU21D;15950;51.112;6.966;2023-01-29T19:28:05;2.63;77.49
26721;HTU21D;15950;51.112;6.966;2023-01-29T19:31:06;2.55;77.55
26721;HTU21D;15950;51.112;6.966;2023-01-29T19:34:05;2.62;77.54
26721;HTU21D;15950;51.112;6.966;2023-01-29T19:37:05;2.60;77.61
26721;HTU21D;15950;51.112;6.966;2023-01-29T19:40:06;2.65;77.69
26721;HTU21D;15950;51.112;6.966;2023-01-29T19:43:05;2.67;77.60
26721;HTU21D;15950;51.112;6.966;2023-01-29T19:46:05;2.61;77.97
26721;HTU21D;15950;51.112;6.966;2023-01-29T19:49:05;2.66;78.59
26721;HTU21D;15950;51.112;6.966;2023-01-29T19:52:05;2.55;79.30
26721;HTU21D;15950;51.112;6.966;2023-01-29T19:55:07;2.52;80.20
26721;HTU21D;15950;51.112;6.966;2023-01-29T19:58:05;2.38;80.99
26721;HTU21D;15950;51.112;6.966;2023-01-29T20:01:17;2.41;81.68
26721;HTU21D;15950;51.112;6.966;2023-01-29T20:04:05;2.52;81.88
26721;HTU21D;15950;51.112;6.966;2023-01-29T20:07:05;2.46;81.94
26721;HTU21D;15950;51.112;6.966;2023-01-29T20:10:07;2.43;82.36
26721;HTU21D;15950;51.112;6.966;2023-01-29T20:13:06;2.52;82.41
26721;HTU21D;15950;51.112;6.966;2023-01-29T20:16:05;2.56;82.27
26721;HTU21D;15950;51.112;6.966;2023-01-29T20:19:05;2.50;82.34
26721;HTU21D;15950;51.112;6.966;2023-01-29T20:22:05;2.42;82.95
26721;HTU21D;15950;51.112;6.966;2023-01-29T20:25:05;2.44;83.38
26721;HTU21D;15950;51.112;6.966;2023-01-29T20:28:10;2.53;83.49
26721;HTU21D;15950;51.112;6.966;2023-01-29T20:31:07;2.37;84.26
26721;HTU21D;15950;51.112;6.966;2023-01-29T20:34:05;2.34;84.12
26721;HTU21D;15950;51.112;6.966;2023-01-29T20:37:05;2.35;84.42
26721;HTU21D;15950;51.112;6.966;2023-01-29T20:40:05;2.41;84.09
26721;HTU21D;15950;51.112;6.966;2023-01-29T20:43:05;2.53;83.58
26721;HTU21D;15950;51.112;6.966;2023-01-29T20:46:05;2.50;83.36
26721;HTU21D;15950;51.112;6.966;2023-01-29T20:49:05;2.48;83.46
26721;HTU21D;15950;51.112;6.966;2023-01-29T20:52:05;2.59;83.19
26721;HTU21D;15950;51.112;6.966;2023-01-29T20:55:08;2.61;82.88
26721;HTU21D;15950;51.112;6.966;2023-01-29T20:58:05;2.53;82.92
26721;HTU21D;15950;51.112;6.966;2023-01-29T21:01:10;2.62;82.87
26721;HTU21D;15950;51.112;6.966;2023-01-29T21:04:05;2.53;82.95
26721;HTU21D;15950;51.112;6.966;2023-01-29T21:07:05;2.52;82.78
26721;HTU21D;15950;51.112;6.966;2023-01-29T21:10:06;2.65;82.97
26721;HTU21D;15950;51.112;6.966;2023-01-29T21:13:05;2.64;82.90
26721;HTU21D;15950;51.112;6.966;2023-01-29T21:16:06;2.53;82.87
26721;HTU21D;15950;51.112;6.966;2023-01-29T21:19:05;2.53;83.20
26721;HTU21D;15950;51.112;6.966;2023-01-29T21:22:05;2.38;83.47
26721;HTU21D;15950;51.112;6.966;2023-01-29T21:25:06;2.35;84.23
26721;HTU21D;15950;51.112;6.966;2023-01-29T21:28:06;2.46;84.10
26721;HTU21D;15950;51.112;6.966;2023-01-29T21:31:08;2.46;83.87
26721;HTU21D;15950;51.112;6.966;2023-01-29T21:34:05;2.36;84.26
26721;HTU21D;15950;51.112;6.966;2023-01-29T21:37:05;2.51;84.16
26721;HTU21D;15950;51.112;6.966;2023-01-29T21:40:07;2.41;84.19
26721;HTU21D;15950;51.112;6.966;2023-01-29T21:43:05;2.47;84.31
26721;HTU21D;15950;51.112;6.966;2023-01-29T21:46:07;2.55;84.10
26721;HTU21D;15950;51.112;6.966;2023-01-29T21:49:05;2.48;84.26
26721;HTU21D;15950;51.112;6.966;2023-01-29T21:52:05;2.44;84.52
26721;HTU21D;15950;51.112;6.966;2023-01-29T21:55:05;2.65;83.97
26721;HTU21D;15950;51.112;6.966;2023-01-29T21:58:05;2.66;83.69
26721;HTU21D;15950;51.112;6.966;2023-01-29T22:01:05;2.65;83.97
26721;HTU21D;15950;51.112;6.966;2023-01-29T22:04:05;2.58;84.16
26721;HTU21D;15950;51.112;6.966;2023-01-29T22:07:05;2.78;83.81
26721;HTU21D;15950;51.112;6.966;2023-01-29T22:10:05;2.79;84.34
26721;HTU21D;15950;51.112;6.966;2023-01-29T22:13:05;2.61;85.59
26721;HTU21D;15950;51.112;6.966;2023-01-29T22:16:05;2.70;86.06
26721;HTU21D;15950;51.112;6.966;2023-01-29T22:19:05;2.82;86.27
26721;HTU21D;15950;51.112;6.966;2023-01-29T22:22:05;2.75;86.96
26721;HTU21D;15950;51.112;6.966;2023-01-29T22:25:05;2.81;87.60
26721;HTU21D;15950;51.112;6.966;2023-01-29T22:28:05;2.95;87.25
26721;HTU21D;15950;51.112;6.966;2023-01-29T22:31:05;2.98;87.76
26721;HTU21D;15950;51.112;6.966;2023-01-29T22:34:06;2.81;88.25
26721;HTU21D;15950;51.112;6.966;2023-01-29T22:37:05;2.78;89.27
26721;HTU21D;15950;51.112;6.966;2023-01-29T22:40:06;2.84;89.24
26721;HTU21D;15950;51.112;6.966;2023-01-29T22:43:05;2.83;89.48
26721;HTU21D;15950;51.112;6.966;2023-01-29T22:46:06;2.73;89.67
26721;HTU21D;15950;51.112;6.966;2023-01-29T22:49:05;2.72;90.22
26721;HTU21D;15950;51.112;6.966;2023-01-29T22:52:05;2.85;90.59
26721;HTU21D;15950;51.112;6.966;2023-01-29T22:55:10;2.85;90.68
26721;HTU21D;15950;51.112;6.966;2023-01-29T22:58:05;2.94;90.49
26721;HTU21D;15950;51.112;6.966;2023-01-29T23:01:06;3.08;90.23